createdAt,value
2016-10-31T00:00:47.285Z,8.69
2016-10-31T00:01:47.309Z,8.69
2016-10-31T00:02:47.308Z,8.71
2016-10-31T00:03:47.437Z,8.7
2016-10-31T00:04:47.343Z,8.67
2016-10-31T00:05:47.359Z,8.69
2016-10-31T00:06:47.374Z,8.67
2016-10-31T00:07:47.385Z,8.67
2016-10-31T00:08:47.394Z,8.69
2016-10-31T00:09:47.857Z,8.61
2016-10-31T00:10:47.437Z,8.63
2016-10-31T00:11:47.453Z,8.64
2016-10-31T00:12:47.459Z,8.66
2016-10-31T00:13:47.477Z,8.63
2016-10-31T00:14:47.485Z,8.6
2016-10-31T00:15:47.514Z,8.61
2016-10-31T00:16:47.528Z,8.61
2016-10-31T00:17:47.538Z,8.63
2016-10-31T00:18:47.544Z,8.64
2016-10-31T00:19:47.563Z,8.58
2016-10-31T00:20:47.578Z,8.58
2016-10-31T00:21:47.599Z,8.66
2016-10-31T00:22:47.602Z,8.63
2016-10-31T00:23:47.625Z,8.56
2016-10-31T00:24:47.641Z,8.66
2016-10-31T00:25:47.665Z,8.55
2016-10-31T00:26:47.667Z,8.51
2016-10-31T00:27:47.685Z,8.53
2016-10-31T00:28:47.703Z,8.52
2016-10-31T00:29:47.720Z,8.52
2016-10-31T00:30:47.734Z,8.55
2016-10-31T00:31:47.754Z,8.52
2016-10-31T00:32:47.758Z,8.51
2016-10-31T00:33:47.780Z,8.61
2016-10-31T00:34:47.789Z,8.53
2016-10-31T00:35:47.802Z,8.53
2016-10-31T00:36:47.817Z,8.52
2016-10-31T00:37:47.829Z,8.51
2016-10-31T00:38:47.847Z,8.52
2016-10-31T00:39:47.854Z,8.51
2016-10-31T00:40:47.874Z,8.48
2016-10-31T00:41:47.888Z,8.49
2016-10-31T00:42:47.907Z,8.49
2016-10-31T00:43:47.922Z,8.49
2016-10-31T00:44:47.940Z,8.56
2016-10-31T00:45:47.946Z,8.52
2016-10-31T00:46:47.968Z,8.52
2016-10-31T00:47:47.976Z,8.55
2016-10-31T00:48:47.993Z,8.53
2016-10-31T00:49:48.007Z,8.51
2016-10-31T00:50:48.024Z,8.53
2016-10-31T00:51:48.036Z,8.52
2016-10-31T00:52:48.053Z,8.51
2016-10-31T00:53:48.079Z,8.52
2016-10-31T00:54:48.088Z,8.48
2016-10-31T00:55:48.098Z,8.56
2016-10-31T00:56:48.108Z,8.46
2016-10-31T00:57:48.121Z,8.48
2016-10-31T00:58:48.136Z,8.51
2016-10-31T00:59:48.168Z,8.53
2016-10-31T01:00:48.177Z,8.49
2016-10-31T01:01:48.188Z,8.51
2016-10-31T01:02:48.208Z,8.51
2016-10-31T01:03:48.225Z,8.48
2016-10-31T01:04:48.230Z,8.46
2016-10-31T01:05:48.247Z,8.48
2016-10-31T01:06:48.262Z,8.46
2016-10-31T01:07:48.274Z,8.46
2016-10-31T01:08:48.295Z,8.49
2016-10-31T01:09:48.306Z,8.48
2016-10-31T01:10:48.319Z,8.49
2016-10-31T01:11:48.335Z,8.52
2016-10-31T01:12:48.356Z,8.49
2016-10-31T01:13:48.366Z,8.52
2016-10-31T01:14:48.382Z,8.49
2016-10-31T01:15:48.384Z,8.49
2016-10-31T01:16:48.416Z,8.55
2016-10-31T01:17:48.423Z,8.48
2016-10-31T01:18:48.433Z,8.53
2016-10-31T01:19:48.459Z,8.55
2016-10-31T01:20:48.468Z,8.53
2016-10-31T01:21:48.481Z,8.55
2016-10-31T01:22:48.515Z,8.55
2016-10-31T01:23:48.503Z,8.51
2016-10-31T01:24:48.519Z,8.53
2016-10-31T01:25:48.547Z,8.61
2016-10-31T01:26:48.555Z,8.64
2016-10-31T01:27:48.569Z,8.56
2016-10-31T01:28:48.590Z,8.52
2016-10-31T01:29:48.601Z,8.56
2016-10-31T01:30:48.620Z,8.66
2016-10-31T01:31:48.633Z,8.63
2016-10-31T01:32:48.644Z,8.58
2016-10-31T01:33:48.654Z,8.63
2016-10-31T01:34:48.675Z,8.61
2016-10-31T01:35:48.689Z,8.58
2016-10-31T01:36:48.707Z,8.58
2016-10-31T01:37:48.717Z,8.58
2016-10-31T01:38:48.735Z,8.63
2016-10-31T01:39:48.747Z,8.58
2016-10-31T01:40:48.754Z,8.61
2016-10-31T01:41:48.769Z,8.63
2016-10-31T01:42:48.785Z,8.63
2016-10-31T01:43:48.795Z,8.6
2016-10-31T01:44:48.812Z,8.61
2016-10-31T01:45:48.828Z,8.69
2016-10-31T01:46:48.847Z,8.61
2016-10-31T01:47:49.169Z,8.69
2016-10-31T01:48:48.876Z,8.73
2016-10-31T01:49:48.889Z,8.7
2016-10-31T01:50:48.896Z,8.64
2016-10-31T01:51:48.912Z,8.69
2016-10-31T01:52:48.929Z,8.66
2016-10-31T01:53:48.943Z,8.7
2016-10-31T01:54:48.957Z,8.67
2016-10-31T01:55:48.969Z,8.76
2016-10-31T01:56:48.987Z,8.67
2016-10-31T01:57:49.007Z,8.73
2016-10-31T01:58:49.020Z,8.71
2016-10-31T01:59:49.032Z,8.7
2016-10-31T02:00:49.052Z,8.7
2016-10-31T02:01:49.056Z,8.69
2016-10-31T02:02:49.077Z,8.69
2016-10-31T02:03:49.087Z,8.7
2016-10-31T02:04:49.102Z,8.76
2016-10-31T02:05:49.115Z,8.69
2016-10-31T02:06:49.129Z,8.69
2016-10-31T02:07:49.144Z,8.71
2016-10-31T02:08:49.167Z,8.7
2016-10-31T02:09:49.173Z,8.71
2016-10-31T02:10:49.193Z,8.67
2016-10-31T02:11:49.207Z,8.74
2016-10-31T02:12:49.530Z,8.66
2016-10-31T02:13:49.238Z,8.67
2016-10-31T02:14:49.249Z,8.73
2016-10-31T02:15:49.268Z,8.76
2016-10-31T02:16:49.278Z,8.69
2016-10-31T02:17:49.294Z,8.74
2016-10-31T02:18:49.307Z,8.69
2016-10-31T02:19:49.321Z,8.66
2016-10-31T02:20:49.646Z,8.66
2016-10-31T02:21:49.353Z,8.67
2016-10-31T02:22:49.364Z,8.66
2016-10-31T02:23:49.384Z,8.7
2016-10-31T02:24:49.399Z,8.69
2016-10-31T02:25:49.415Z,8.7
2016-10-31T02:26:49.425Z,8.71
2016-10-31T02:27:49.475Z,8.69
2016-10-31T02:28:49.457Z,8.7
2016-10-31T02:29:49.471Z,8.79
2016-10-31T02:30:49.485Z,8.76
2016-10-31T02:31:49.499Z,8.71
2016-10-31T02:32:49.520Z,8.69
2016-10-31T02:33:49.537Z,8.69
2016-10-31T02:34:49.546Z,8.74
2016-10-31T02:35:49.559Z,8.76
2016-10-31T02:36:49.571Z,8.81
2016-10-31T02:37:49.587Z,8.73
2016-10-31T02:38:49.607Z,8.81
2016-10-31T02:39:49.615Z,8.79
2016-10-31T02:40:49.638Z,8.73
2016-10-31T02:41:49.652Z,8.78
2016-10-31T02:42:49.700Z,8.73
2016-10-31T02:43:49.682Z,8.7
2016-10-31T02:44:49.697Z,8.74
2016-10-31T02:45:49.709Z,8.7
2016-10-31T02:46:49.722Z,8.81
2016-10-31T02:47:49.738Z,8.85
2016-10-31T02:48:49.753Z,8.81
2016-10-31T02:49:49.778Z,8.76
2016-10-31T02:50:49.793Z,8.74
2016-10-31T02:51:49.801Z,8.82
2016-10-31T02:52:49.816Z,8.79
2016-10-31T02:53:49.828Z,8.82
2016-10-31T02:54:49.840Z,8.79
2016-10-31T02:55:49.859Z,8.85
2016-10-31T02:56:49.906Z,8.82
2016-10-31T02:57:49.886Z,8.84
2016-10-31T02:58:49.911Z,8.87
2016-10-31T02:59:49.920Z,8.79
2016-10-31T03:00:49.932Z,8.81
2016-10-31T03:01:49.945Z,8.76
2016-10-31T03:02:49.963Z,8.91
2016-10-31T03:03:49.979Z,8.92
2016-10-31T03:04:50.028Z,8.87
2016-10-31T03:05:50.008Z,8.87
2016-10-31T03:06:50.020Z,8.91
2016-10-31T03:07:50.041Z,8.89
2016-10-31T03:08:50.064Z,8.85
2016-10-31T03:09:50.068Z,8.88
2016-10-31T03:10:50.079Z,8.87
2016-10-31T03:11:50.096Z,8.88
2016-10-31T03:12:50.462Z,8.91
2016-10-31T03:13:50.132Z,8.92
2016-10-31T03:14:50.142Z,8.87
2016-10-31T03:15:50.156Z,8.88
2016-10-31T03:16:50.173Z,8.89
2016-10-31T03:17:50.186Z,8.87
2016-10-31T03:18:50.230Z,8.97
2016-10-31T03:19:50.218Z,9.02
2016-10-31T03:20:50.233Z,8.99
2016-10-31T03:21:50.249Z,8.92
2016-10-31T03:22:50.261Z,8.95
2016-10-31T03:23:50.280Z,9
2016-10-31T03:24:50.289Z,8.95
2016-10-31T03:25:50.307Z,9
2016-10-31T03:26:50.320Z,8.91
2016-10-31T03:27:50.342Z,9
2016-10-31T03:28:50.350Z,9.03
2016-10-31T03:29:50.368Z,8.99
2016-10-31T03:30:50.381Z,8.92
2016-10-31T03:31:50.426Z,9
2016-10-31T03:32:50.416Z,9.03
2016-10-31T03:33:50.423Z,9.02
2016-10-31T03:34:50.443Z,9.04
2016-10-31T03:35:50.454Z,8.99
2016-10-31T03:36:50.469Z,9.04
2016-10-31T03:37:50.607Z,9
2016-10-31T03:38:50.498Z,8.99
2016-10-31T03:39:50.627Z,9.13
2016-10-31T03:40:50.528Z,9.04
2016-10-31T03:41:50.544Z,9.06
2016-10-31T03:42:50.557Z,9.06
2016-10-31T03:43:50.577Z,9.08
2016-10-31T03:44:50.593Z,9.08
2016-10-31T03:45:50.605Z,9.11
2016-10-31T03:46:50.619Z,9.1
2016-10-31T03:47:50.631Z,9.08
2016-10-31T03:48:50.651Z,9.1
2016-10-31T03:49:50.666Z,9.11
2016-10-31T03:50:50.676Z,9.11
2016-10-31T03:51:50.702Z,9.1
2016-10-31T03:52:50.713Z,9.13
2016-10-31T03:53:50.724Z,9.11
2016-10-31T03:54:50.739Z,9.13
2016-10-31T03:55:50.754Z,9.1
2016-10-31T03:56:50.768Z,9.13
2016-10-31T03:57:50.785Z,9.13
2016-10-31T03:58:50.799Z,9.14
2016-10-31T03:59:50.813Z,9.16
2016-10-31T04:00:50.870Z,9.23
2016-10-31T04:01:50.880Z,9.16
2016-10-31T04:02:50.861Z,9.21
2016-10-31T04:03:50.875Z,9.18
2016-10-31T04:04:50.893Z,9.13
2016-10-31T04:05:50.904Z,9.19
2016-10-31T04:06:50.925Z,9.21
2016-10-31T04:07:51.267Z,9.14
2016-10-31T04:08:50.951Z,9.16
2016-10-31T04:09:50.964Z,9.25
2016-10-31T04:10:50.980Z,9.19
2016-10-31T04:11:51.104Z,9.23
2016-10-31T04:12:51.011Z,9.19
2016-10-31T04:13:51.028Z,9.25
2016-10-31T04:14:51.043Z,9.19
2016-10-31T04:15:51.063Z,9.21
2016-10-31T04:16:51.076Z,9.21
2016-10-31T04:17:51.091Z,9.26
2016-10-31T04:18:51.106Z,9.26
2016-10-31T04:19:51.118Z,9.25
2016-10-31T04:20:51.246Z,9.26
2016-10-31T04:21:51.151Z,9.26
2016-10-31T04:22:51.166Z,9.32
2016-10-31T04:23:51.177Z,9.28
2016-10-31T04:24:51.191Z,9.28
2016-10-31T04:25:51.214Z,9.23
2016-10-31T04:26:51.227Z,9.32
2016-10-31T04:27:51.237Z,9.29
2016-10-31T04:28:51.255Z,9.34
2016-10-31T04:29:51.270Z,9.34
2016-10-31T04:30:51.280Z,9.26
2016-10-31T04:31:51.296Z,9.32
2016-10-31T04:32:51.312Z,9.32
2016-10-31T04:33:51.329Z,9.32
2016-10-31T04:34:51.345Z,9.25
2016-10-31T04:35:51.471Z,9.31
2016-10-31T04:36:51.378Z,9.28
2016-10-31T04:37:51.386Z,9.32
2016-10-31T04:38:51.442Z,9.26
2016-10-31T04:39:51.420Z,9.26
2016-10-31T04:40:51.437Z,9.31
2016-10-31T04:41:51.450Z,9.28
2016-10-31T04:42:51.462Z,9.29
2016-10-31T04:43:51.487Z,9.29
2016-10-31T04:44:51.494Z,9.29
2016-10-31T04:45:51.507Z,9.26
2016-10-31T04:46:51.526Z,9.25
2016-10-31T04:47:51.538Z,9.29
2016-10-31T04:48:51.552Z,9.25
2016-10-31T04:49:51.572Z,9.28
2016-10-31T04:50:51.586Z,9.25
2016-10-31T04:51:51.602Z,9.28
2016-10-31T04:52:51.614Z,9.25
2016-10-31T04:53:51.628Z,9.25
2016-10-31T04:54:51.644Z,9.31
2016-10-31T04:55:51.698Z,9.26
2016-10-31T04:56:51.677Z,9.23
2016-10-31T04:57:51.692Z,9.28
2016-10-31T04:58:51.706Z,9.28
2016-10-31T04:59:51.737Z,9.26
2016-10-31T05:00:51.734Z,9.25
2016-10-31T05:01:51.752Z,9.23
2016-10-31T05:02:51.764Z,9.22
2016-10-31T05:03:51.778Z,9.29
2016-10-31T05:04:51.800Z,9.19
2016-10-31T05:05:51.809Z,9.21
2016-10-31T05:06:51.828Z,9.23
2016-10-31T05:07:51.843Z,9.23
2016-10-31T05:08:51.856Z,9.28
2016-10-31T05:09:51.869Z,9.21
2016-10-31T05:10:51.887Z,9.28
2016-10-31T05:11:51.964Z,9.28
2016-10-31T05:12:51.916Z,9.32
2016-10-31T05:13:51.937Z,9.26
2016-10-31T05:14:51.951Z,9.22
2016-10-31T05:15:51.959Z,9.25
2016-10-31T05:16:51.975Z,9.29
2016-10-31T05:17:51.993Z,9.25
2016-10-31T05:18:52.005Z,9.23
2016-10-31T05:19:52.029Z,9.28
2016-10-31T05:20:52.044Z,9.31
2016-10-31T05:21:52.054Z,9.28
2016-10-31T05:22:52.076Z,9.28
2016-10-31T05:23:52.080Z,9.29
2016-10-31T05:24:52.101Z,9.28
2016-10-31T05:25:52.115Z,9.28
2016-10-31T05:26:52.128Z,9.31
2016-10-31T05:27:52.143Z,9.29
2016-10-31T05:28:52.159Z,9.23
2016-10-31T05:29:52.172Z,9.29
2016-10-31T05:30:52.188Z,9.26
2016-10-31T05:31:52.205Z,9.26
2016-10-31T05:32:52.218Z,9.28
2016-10-31T05:33:52.234Z,9.26
2016-10-31T05:34:52.250Z,9.32
2016-10-31T05:35:52.264Z,9.26
2016-10-31T05:36:52.280Z,9.25
2016-10-31T05:37:52.297Z,9.25
2016-10-31T05:38:52.315Z,9.21
2016-10-31T05:39:52.324Z,9.28
2016-10-31T05:40:52.338Z,9.28
2016-10-31T05:41:52.389Z,9.32
2016-10-31T05:42:52.372Z,9.23
2016-10-31T05:43:52.385Z,9.28
2016-10-31T05:44:52.401Z,9.34
2016-10-31T05:45:52.420Z,9.26
2016-10-31T05:46:52.436Z,9.25
2016-10-31T05:47:52.483Z,9.32
2016-10-31T05:48:52.463Z,9.29
2016-10-31T05:49:52.477Z,9.25
2016-10-31T05:50:52.489Z,9.28
2016-10-31T05:51:52.506Z,9.26
2016-10-31T05:52:52.525Z,9.28
2016-10-31T05:53:52.539Z,9.28
2016-10-31T05:54:52.554Z,9.26
2016-10-31T05:55:52.568Z,9.28
2016-10-31T05:56:52.583Z,9.26
2016-10-31T05:57:52.599Z,9.25
2016-10-31T05:58:52.617Z,9.23
2016-10-31T05:59:52.628Z,9.28
2016-10-31T06:00:52.643Z,9.25
2016-10-31T06:01:52.659Z,9.26
2016-10-31T06:02:52.676Z,9.28
2016-10-31T06:03:52.692Z,9.26
2016-10-31T06:04:52.701Z,9.26
2016-10-31T06:05:52.718Z,9.29
2016-10-31T06:06:52.736Z,9.26
2016-10-31T06:07:52.751Z,9.22
2016-10-31T06:08:52.763Z,9.31
2016-10-31T06:09:52.786Z,9.26
2016-10-31T06:10:52.798Z,9.26
2016-10-31T06:11:52.812Z,9.37
2016-10-31T06:12:52.825Z,9.39
2016-10-31T06:13:52.847Z,9.29
2016-10-31T06:14:52.857Z,9.34
2016-10-31T06:15:53.193Z,9.37
2016-10-31T06:16:53.202Z,9.39
2016-10-31T06:17:52.908Z,9.26
2016-10-31T06:18:52.919Z,9.36
2016-10-31T06:19:52.930Z,9.34
2016-10-31T06:20:52.948Z,9.4
2016-10-31T06:21:52.963Z,9.34
2016-10-31T06:22:52.977Z,9.46
2016-10-31T06:23:52.993Z,9.39
2016-10-31T06:24:53.039Z,9.34
2016-10-31T06:25:53.027Z,9.4
2016-10-31T06:26:53.042Z,9.37
2016-10-31T06:27:53.057Z,9.4
2016-10-31T06:28:53.067Z,9.44
2016-10-31T06:29:53.086Z,9.37
2016-10-31T06:30:53.096Z,9.47
2016-10-31T06:31:53.112Z,9.44
2016-10-31T06:32:53.129Z,9.4
2016-10-31T06:33:53.145Z,9.44
2016-10-31T06:34:53.158Z,9.46
2016-10-31T06:35:53.175Z,9.47
2016-10-31T06:36:53.190Z,9.43
2016-10-31T06:37:53.205Z,9.46
2016-10-31T06:38:53.222Z,9.41
2016-10-31T06:39:53.231Z,9.44
2016-10-31T06:40:53.251Z,9.43
2016-10-31T06:41:53.264Z,9.46
2016-10-31T06:42:53.279Z,9.46
2016-10-31T06:43:53.302Z,9.47
2016-10-31T06:44:53.312Z,9.51
2016-10-31T06:45:53.325Z,9.48
2016-10-31T06:46:53.342Z,9.5
2016-10-31T06:47:53.387Z,9.54
2016-10-31T06:48:53.376Z,9.56
2016-10-31T06:49:53.387Z,9.51
2016-10-31T06:50:53.398Z,9.55
2016-10-31T06:51:53.414Z,9.59
2016-10-31T06:52:53.431Z,9.59
2016-10-31T06:53:53.449Z,9.62
2016-10-31T06:54:53.459Z,9.56
2016-10-31T06:55:53.474Z,9.55
2016-10-31T06:56:53.489Z,9.58
2016-10-31T06:57:53.506Z,9.56
2016-10-31T06:58:53.526Z,9.58
2016-10-31T06:59:53.538Z,9.55
2016-10-31T07:00:53.554Z,9.56
2016-10-31T07:01:53.568Z,9.55
2016-10-31T07:02:53.896Z,9.61
2016-10-31T07:03:53.604Z,9.55
2016-10-31T07:04:53.612Z,9.64
2016-10-31T07:05:53.625Z,9.61
2016-10-31T07:06:53.647Z,9.65
2016-10-31T07:07:53.658Z,9.72
2016-10-31T07:08:53.677Z,9.68
2016-10-31T07:09:53.690Z,9.69
2016-10-31T07:10:53.705Z,9.66
2016-10-31T07:11:53.718Z,9.62
2016-10-31T07:12:53.735Z,9.66
2016-10-31T07:13:53.755Z,9.65
2016-10-31T07:14:53.769Z,9.66
2016-10-31T07:15:53.812Z,9.66
2016-10-31T07:16:53.800Z,9.72
2016-10-31T07:17:53.809Z,9.68
2016-10-31T07:18:53.860Z,9.59
2016-10-31T07:19:53.844Z,9.72
2016-10-31T07:20:53.858Z,9.76
2016-10-31T07:21:53.876Z,9.77
2016-10-31T07:22:53.896Z,9.79
2016-10-31T07:23:53.906Z,9.68
2016-10-31T07:24:53.959Z,9.66
2016-10-31T07:25:53.935Z,9.76
2016-10-31T07:26:54.263Z,9.77
2016-10-31T07:27:53.968Z,9.74
2016-10-31T07:28:53.982Z,9.74
2016-10-31T07:29:54.042Z,9.77
2016-10-31T07:30:54.026Z,9.76
2016-10-31T07:31:54.025Z,9.79
2016-10-31T07:32:54.044Z,9.8
2016-10-31T07:33:54.058Z,9.77
2016-10-31T07:34:54.071Z,9.8
2016-10-31T07:35:54.085Z,9.77
2016-10-31T07:36:54.109Z,9.82
2016-10-31T07:37:54.116Z,9.87
2016-10-31T07:38:54.135Z,9.8
2016-10-31T07:39:54.151Z,9.8
2016-10-31T07:40:54.168Z,9.87
2016-10-31T07:41:54.510Z,9.89
2016-10-31T07:42:54.200Z,9.89
2016-10-31T07:43:54.216Z,9.94
2016-10-31T07:44:54.228Z,9.91
2016-10-31T07:45:54.242Z,9.91
2016-10-31T07:46:54.262Z,9.94
2016-10-31T07:47:54.277Z,9.89
2016-10-31T07:48:54.290Z,9.98
2016-10-31T07:49:54.303Z,9.94
2016-10-31T07:50:54.323Z,9.94
2016-10-31T07:51:54.332Z,9.97
2016-10-31T07:52:54.351Z,10.01
2016-10-31T07:53:54.370Z,9.94
2016-10-31T07:54:54.384Z,10.01
2016-10-31T07:55:54.397Z,10.04
2016-10-31T07:56:54.414Z,9.99
2016-10-31T07:57:54.427Z,9.95
2016-10-31T07:58:54.442Z,10.07
2016-10-31T07:59:54.462Z,9.95
2016-10-31T08:00:54.482Z,9.99
2016-10-31T08:01:54.491Z,10.02
2016-10-31T08:02:54.818Z,9.98
2016-10-31T08:03:54.524Z,10.09
2016-10-31T08:04:54.544Z,10.12
2016-10-31T08:05:54.556Z,10.02
2016-10-31T08:06:54.571Z,10.1
2016-10-31T08:07:54.588Z,10.1
2016-10-31T08:08:54.602Z,10.13
2016-10-31T08:09:54.621Z,10.15
2016-10-31T08:10:54.630Z,10.09
2016-10-31T08:11:54.645Z,10.09
2016-10-31T08:12:54.664Z,10.13
2016-10-31T08:13:54.683Z,10.17
2016-10-31T08:14:54.697Z,10.16
2016-10-31T08:15:54.706Z,10.25
2016-10-31T08:16:54.726Z,10.19
2016-10-31T08:17:54.741Z,10.25
2016-10-31T08:18:54.766Z,10.33
2016-10-31T08:19:54.772Z,10.23
2016-10-31T08:20:54.788Z,10.26
2016-10-31T08:21:54.802Z,10.28
2016-10-31T08:22:54.827Z,10.26
2016-10-31T08:23:54.837Z,10.33
2016-10-31T08:24:54.851Z,10.33
2016-10-31T08:25:54.869Z,10.31
2016-10-31T08:26:54.882Z,10.37
2016-10-31T08:27:54.898Z,10.33
2016-10-31T08:28:54.921Z,10.28
2016-10-31T08:29:54.931Z,10.37
2016-10-31T08:30:54.956Z,10.4
2016-10-31T08:31:54.963Z,10.35
2016-10-31T08:32:54.978Z,10.44
2016-10-31T08:33:54.995Z,10.4
2016-10-31T08:34:55.018Z,10.41
2016-10-31T08:35:55.574Z,10.46
2016-10-31T08:36:55.038Z,10.44
2016-10-31T08:37:55.055Z,10.44
2016-10-31T08:38:55.069Z,10.41
2016-10-31T08:39:55.085Z,10.46
2016-10-31T08:40:55.105Z,10.53
2016-10-31T08:41:55.119Z,10.54
2016-10-31T08:42:55.135Z,10.54
2016-10-31T08:43:55.150Z,10.56
2016-10-31T08:44:55.164Z,10.59
2016-10-31T08:45:55.184Z,10.61
2016-10-31T08:46:55.200Z,10.59
2016-10-31T08:47:55.213Z,10.6
2016-10-31T08:48:55.228Z,10.61
2016-10-31T08:49:55.243Z,10.71
2016-10-31T08:50:55.258Z,10.64
2016-10-31T08:51:55.274Z,10.63
2016-10-31T08:52:55.293Z,10.68
2016-10-31T08:53:55.310Z,10.69
2016-10-31T08:54:55.321Z,10.67
2016-10-31T08:55:55.344Z,10.67
2016-10-31T08:56:55.358Z,10.69
2016-10-31T08:57:55.377Z,10.75
2016-10-31T08:58:55.388Z,10.72
2016-10-31T08:59:55.440Z,10.68
2016-10-31T09:00:55.425Z,10.81
2016-10-31T09:01:55.438Z,10.72
2016-10-31T09:02:55.458Z,10.79
2016-10-31T09:03:55.468Z,10.75
2016-10-31T09:04:55.491Z,10.81
2016-10-31T09:05:55.501Z,10.79
2016-10-31T09:06:55.518Z,10.74
2016-10-31T09:07:55.533Z,10.81
2016-10-31T09:08:55.547Z,10.74
2016-10-31T09:09:55.565Z,10.74
2016-10-31T09:10:55.588Z,10.75
2016-10-31T09:11:55.639Z,10.86
2016-10-31T09:12:55.614Z,10.84
2016-10-31T09:13:55.627Z,10.96
2016-10-31T09:14:55.648Z,10.99
2016-10-31T09:15:55.661Z,10.94
2016-10-31T09:16:55.688Z,10.86
2016-10-31T09:17:55.694Z,10.97
2016-10-31T09:18:55.711Z,10.9
2016-10-31T09:19:55.736Z,10.99
2016-10-31T09:20:55.741Z,10.94
2016-10-31T09:21:55.759Z,10.99
2016-10-31T09:22:55.783Z,10.96
2016-10-31T09:23:55.824Z,10.97
2016-10-31T09:24:55.811Z,11
2016-10-31T09:25:55.827Z,10.99
2016-10-31T09:26:55.840Z,11
2016-10-31T09:27:55.862Z,11
2016-10-31T09:28:55.872Z,11
2016-10-31T09:29:55.889Z,10.94
2016-10-31T09:30:55.909Z,11.07
2016-10-31T09:31:55.923Z,11.08
2016-10-31T09:32:55.938Z,11.1
2016-10-31T09:33:55.956Z,11.14
2016-10-31T09:34:55.977Z,11.08
2016-10-31T09:35:55.987Z,11.1
2016-10-31T09:36:56.006Z,11.14
2016-10-31T09:37:56.015Z,11.17
2016-10-31T09:38:56.039Z,11.1
2016-10-31T09:39:56.052Z,11.15
2016-10-31T09:40:56.065Z,11.18
2016-10-31T09:41:56.129Z,11.23
2016-10-31T09:42:56.103Z,11.19
2016-10-31T09:43:56.114Z,11.27
2016-10-31T09:44:56.131Z,11.32
2016-10-31T09:45:56.144Z,11.19
2016-10-31T09:46:56.163Z,11.3
2016-10-31T09:47:56.184Z,11.33
2016-10-31T09:48:56.199Z,11.43
2016-10-31T09:49:56.224Z,11.37
2016-10-31T09:50:56.233Z,11.4
2016-10-31T09:51:56.250Z,11.45
2016-10-31T09:52:56.285Z,11.41
2016-10-31T09:53:56.279Z,11.5
2016-10-31T09:54:56.297Z,11.5
2016-10-31T09:55:56.309Z,11.48
2016-10-31T09:56:56.330Z,11.51
2016-10-31T09:57:56.344Z,11.45
2016-10-31T09:58:56.364Z,11.51
2016-10-31T09:59:56.377Z,11.52
2016-10-31T10:00:56.398Z,11.6
2016-10-31T10:01:56.409Z,11.68
2016-10-31T10:02:56.423Z,11.59
2016-10-31T10:03:56.444Z,11.59
2016-10-31T10:04:56.464Z,11.63
2016-10-31T10:05:56.477Z,11.65
2016-10-31T10:06:56.493Z,11.63
2016-10-31T10:07:56.513Z,11.62
2016-10-31T10:08:56.523Z,11.65
2016-10-31T10:09:56.543Z,11.65
2016-10-31T10:10:56.877Z,11.7
2016-10-31T10:11:56.596Z,11.75
2016-10-31T10:12:56.595Z,11.73
2016-10-31T10:13:56.631Z,11.69
2016-10-31T10:14:56.629Z,11.62
2016-10-31T10:15:56.644Z,11.73
2016-10-31T10:16:56.657Z,11.75
2016-10-31T10:17:56.671Z,11.83
2016-10-31T10:18:56.692Z,11.75
2016-10-31T10:19:56.709Z,11.77
2016-10-31T10:20:56.767Z,11.8
2016-10-31T10:21:56.741Z,11.8
2016-10-31T10:22:56.764Z,11.73
2016-10-31T10:23:56.774Z,11.83
2016-10-31T10:24:56.792Z,11.81
2016-10-31T10:25:56.811Z,11.73
2016-10-31T10:26:56.832Z,11.86
2016-10-31T10:27:56.846Z,11.83
2016-10-31T10:28:56.858Z,11.86
2016-10-31T10:29:56.877Z,11.9
2016-10-31T10:30:56.897Z,11.94
2016-10-31T10:31:56.909Z,11.94
2016-10-31T10:32:57.251Z,11.86
2016-10-31T10:33:56.946Z,11.97
2016-10-31T10:34:56.962Z,12
2016-10-31T10:35:56.976Z,12.06
2016-10-31T10:36:57.003Z,11.99
2016-10-31T10:37:57.053Z,12.03
2016-10-31T10:38:57.033Z,12.02
2016-10-31T10:39:57.047Z,12.12
2016-10-31T10:40:57.064Z,11.99
2016-10-31T10:41:57.080Z,12.1
2016-10-31T10:42:57.098Z,12.07
2016-10-31T10:43:57.118Z,12.06
2016-10-31T10:44:57.134Z,12.07
2016-10-31T10:45:57.149Z,12.07
2016-10-31T10:46:57.170Z,12.13
2016-10-31T10:47:57.190Z,12.12
2016-10-31T10:48:57.200Z,12.2
2016-10-31T10:49:57.218Z,12.17
2016-10-31T10:50:57.234Z,12.2
2016-10-31T10:51:57.255Z,12.24
2016-10-31T10:52:57.274Z,12.24
2016-10-31T10:53:57.293Z,12.22
2016-10-31T10:54:57.302Z,12.24
2016-10-31T10:55:57.317Z,12.24
2016-10-31T10:56:57.380Z,12.29
2016-10-31T10:57:57.356Z,12.28
2016-10-31T10:58:57.371Z,12.31
2016-10-31T10:59:57.391Z,12.31
2016-10-31T11:00:57.407Z,12.25
2016-10-31T11:01:57.423Z,12.4
2016-10-31T11:02:57.475Z,12.37
2016-10-31T11:03:57.458Z,12.35
2016-10-31T11:04:57.475Z,12.4
2016-10-31T11:05:57.494Z,12.42
2016-10-31T11:06:57.815Z,12.42
2016-10-31T11:07:57.556Z,12.42
2016-10-31T11:08:57.539Z,12.43
2016-10-31T11:09:57.557Z,12.43
2016-10-31T11:10:57.576Z,12.54
2016-10-31T11:11:57.597Z,12.49
2016-10-31T11:12:57.618Z,12.53
2016-10-31T11:13:57.630Z,12.53
2016-10-31T11:14:57.645Z,12.54
2016-10-31T11:15:57.664Z,12.54
2016-10-31T11:16:57.680Z,12.64
2016-10-31T11:17:57.698Z,12.61
2016-10-31T11:18:57.723Z,12.58
2016-10-31T11:19:57.731Z,12.6
2016-10-31T11:20:57.752Z,12.62
2016-10-31T11:21:57.767Z,12.64
2016-10-31T11:22:57.788Z,12.62
2016-10-31T11:23:57.808Z,12.64
2016-10-31T11:24:57.824Z,12.64
2016-10-31T11:25:57.842Z,12.67
2016-10-31T11:26:57.854Z,12.73
2016-10-31T11:27:57.873Z,12.73
2016-10-31T11:28:57.902Z,12.72
2016-10-31T11:29:58.223Z,12.76
2016-10-31T11:30:57.922Z,12.85
2016-10-31T11:31:57.941Z,12.78
2016-10-31T11:32:57.961Z,12.78
2016-10-31T11:33:57.976Z,12.9
2016-10-31T11:34:57.994Z,12.87
2016-10-31T11:35:58.039Z,12.87
2016-10-31T11:36:58.409Z,12.95
2016-10-31T11:37:58.105Z,12.93
2016-10-31T11:38:58.467Z,12.91
2016-10-31T11:39:58.763Z,12.98
2016-10-31T11:40:58.897Z,12.97
2016-10-31T11:41:58.210Z,12.95
2016-10-31T11:42:58.892Z,12.97
2016-10-31T11:43:58.508Z,13.03
2016-10-31T11:44:58.724Z,13.01
2016-10-31T11:45:58.189Z,13.05
2016-10-31T11:46:59.023Z,13.12
2016-10-31T11:47:58.259Z,13.11
2016-10-31T11:48:58.258Z,13.03
2016-10-31T11:49:58.632Z,13.08
2016-10-31T11:50:58.274Z,13.09
2016-10-31T11:51:58.348Z,13.13
2016-10-31T11:52:58.311Z,13.22
2016-10-31T11:53:58.333Z,13.19
2016-10-31T11:54:58.342Z,13.2
2016-10-31T11:55:58.374Z,13.2
2016-10-31T11:56:58.382Z,13.33
2016-10-31T11:57:58.399Z,13.27
2016-10-31T11:58:58.426Z,13.31
2016-10-31T11:59:58.444Z,13.33
2016-10-31T12:00:58.458Z,13.31
2016-10-31T12:01:58.511Z,13.39
2016-10-31T12:02:58.494Z,13.38
2016-10-31T12:03:58.512Z,13.37
2016-10-31T12:04:58.525Z,13.39
2016-10-31T12:05:58.546Z,13.47
2016-10-31T12:06:58.563Z,13.46
2016-10-31T12:07:58.577Z,13.52
2016-10-31T12:08:58.598Z,13.6
2016-10-31T12:09:58.614Z,13.54
2016-10-31T12:10:58.670Z,13.56
2016-10-31T12:11:58.649Z,13.65
2016-10-31T12:12:58.710Z,13.63
2016-10-31T12:13:58.691Z,13.67
2016-10-31T12:14:58.703Z,13.67
2016-10-31T12:15:58.727Z,13.74
2016-10-31T12:16:58.742Z,13.75
2016-10-31T12:17:58.758Z,13.68
2016-10-31T12:18:58.779Z,13.75
2016-10-31T12:19:58.798Z,13.83
2016-10-31T12:20:58.810Z,13.77
2016-10-31T12:21:58.837Z,13.78
2016-10-31T12:22:58.851Z,13.79
2016-10-31T12:23:58.869Z,13.86
2016-10-31T12:24:58.884Z,13.89
2016-10-31T12:25:58.901Z,13.87
2016-10-31T12:26:58.926Z,13.89
2016-10-31T12:27:58.941Z,13.81
2016-10-31T12:28:58.957Z,13.87
2016-10-31T12:29:59.008Z,13.83
2016-10-31T12:30:59.008Z,13.93
2016-10-31T12:31:59.194Z,13.93
2016-10-31T12:32:59.030Z,13.9
2016-10-31T12:33:59.047Z,13.89
2016-10-31T12:34:59.067Z,13.89
2016-10-31T12:35:59.086Z,13.93
2016-10-31T12:36:59.106Z,13.9
2016-10-31T12:37:59.124Z,13.87
2016-10-31T12:38:59.137Z,14.03
2016-10-31T12:39:59.157Z,14.04
2016-10-31T12:40:59.225Z,13.97
2016-10-31T12:41:59.199Z,14.05
2016-10-31T12:42:59.218Z,14.03
2016-10-31T12:43:59.241Z,14.1
2016-10-31T12:44:59.251Z,14.05
2016-10-31T12:45:59.271Z,14.1
2016-10-31T12:46:59.288Z,14.12
2016-10-31T12:47:59.303Z,14.18
2016-10-31T12:48:59.322Z,14.08
2016-10-31T12:49:59.346Z,14.18
2016-10-31T12:50:59.361Z,14.17
2016-10-31T12:51:59.381Z,14.12
2016-10-31T12:52:59.407Z,14.26
2016-10-31T12:53:59.418Z,14.2
2016-10-31T12:54:59.434Z,14.12
2016-10-31T12:55:59.454Z,14.17
2016-10-31T12:56:59.476Z,14.25
2016-10-31T12:57:59.490Z,14.26
2016-10-31T12:58:59.512Z,14.18
2016-10-31T12:59:59.527Z,14.26
2016-10-31T13:00:59.545Z,14.28
2016-10-31T13:01:59.567Z,14.2
2016-10-31T13:02:59.581Z,14.33
2016-10-31T13:03:59.603Z,14.25
2016-10-31T13:04:59.619Z,14.26
2016-10-31T13:05:59.641Z,14.25
2016-10-31T13:06:59.660Z,14.26
2016-10-31T13:07:59.682Z,14.28
2016-10-31T13:08:59.695Z,14.29
2016-10-31T13:09:59.718Z,14.28
2016-10-31T13:10:59.733Z,14.35
2016-10-31T13:11:59.753Z,14.35